createdAt,value
2018-12-06T00:01:48.457Z,235.50
2018-12-06T00:04:18.658Z,237.97
2018-12-06T00:06:48.676Z,246.43
2018-12-06T00:09:18.898Z,230.60
2018-12-06T00:11:48.909Z,247.97
2018-12-06T00:14:19.119Z,241.77
2018-12-06T00:16:57.012Z,251.77
2018-12-06T00:19:27.136Z,231.30
2018-12-06T00:21:57.128Z,235.43
2018-12-06T00:24:27.101Z,225.70
2018-12-06T00:26:57.282Z,216.43
2018-12-06T00:29:27.418Z,223.10
2018-12-06T00:31:57.422Z,228.27
2018-12-06T00:34:27.549Z,205.03
2018-12-06T00:36:57.522Z,201.83
2018-12-06T00:39:27.588Z,196.83
2018-12-06T00:41:57.589Z,200.43
2018-12-06T00:44:27.626Z,200.03
2018-12-06T00:46:57.727Z,196.80
2018-12-06T00:49:27.830Z,192.27
2018-12-06T00:51:57.871Z,196.30
2018-12-06T00:54:27.907Z,198.10
2018-12-06T00:56:57.917Z,194.07
2018-12-06T00:59:28.028Z,200.03
2018-12-06T01:01:58.000Z,186.53
2018-12-06T01:04:27.937Z,210.67
2018-12-06T01:06:58.041Z,183.43
2018-12-06T01:09:28.061Z,182.73
2018-12-06T01:11:58.193Z,200.67
2018-12-06T01:17:48.487Z,193.97
2018-12-06T01:20:18.498Z,192.77
2018-12-06T01:22:48.517Z,187.33
2018-12-06T01:25:18.636Z,186.77
2018-12-06T01:27:48.761Z,183.50
2018-12-06T01:30:18.710Z,189.53
2018-12-06T01:32:48.724Z,176.37
2018-12-06T01:35:18.791Z,191.70
2018-12-06T01:37:48.646Z,190.13
2018-12-06T01:40:18.631Z,174.87
2018-12-06T01:42:48.497Z,174.47
2018-12-06T01:45:18.540Z,156.00
2018-12-06T01:47:48.451Z,164.60
2018-12-06T01:50:18.396Z,170.47
2018-12-06T01:52:48.301Z,156.07
2018-12-06T01:55:18.251Z,160.93
2018-12-06T01:57:48.231Z,166.63
2018-12-06T02:00:18.338Z,165.00
2018-12-06T02:02:48.343Z,157.47
2018-12-06T02:05:18.398Z,150.37
2018-12-06T02:07:48.486Z,144.23
2018-12-06T02:10:18.386Z,137.27
2018-12-06T02:12:48.474Z,156.30
2018-12-06T02:15:18.462Z,144.43
2018-12-06T02:17:49.196Z,138.50
2018-12-06T02:20:19.100Z,139.63
2018-12-06T02:22:49.086Z,137.13
2018-12-06T02:25:19.207Z,142.33
2018-12-06T02:27:49.258Z,143.30
2018-12-06T02:30:19.244Z,133.03
2018-12-06T02:32:49.199Z,126.33
2018-12-06T02:35:19.170Z,132.47
2018-12-06T02:37:49.696Z,116.87
2018-12-06T02:40:19.709Z,133.50
2018-12-06T02:42:49.777Z,128.33
2018-12-06T02:45:19.686Z,115.93
2018-12-06T02:47:49.710Z,120.77
2018-12-06T02:50:19.655Z,114.30
2018-12-06T02:52:49.575Z,106.60
2018-12-06T02:55:19.516Z,109.97
2018-12-06T02:57:49.516Z,104.33
2018-12-06T03:00:19.527Z,94.63
2018-12-06T03:02:49.551Z,107.33
2018-12-06T03:05:19.856Z,104.57
2018-12-06T03:07:49.877Z,100.97
2018-12-06T03:10:19.987Z,102.10
2018-12-06T03:12:50.041Z,98.83
2018-12-06T03:15:19.937Z,109.07
2018-12-06T03:17:49.894Z,105.23
2018-12-06T03:20:19.767Z,94.97
2018-12-06T03:22:49.767Z,106.20
2018-12-06T03:25:19.646Z,114.07
2018-12-06T03:27:49.589Z,110.00
2018-12-06T03:30:19.540Z,98.53
2018-12-06T03:32:49.722Z,94.93
2018-12-06T03:35:19.707Z,100.20
2018-12-06T03:37:49.671Z,106.43
2018-12-06T03:40:19.721Z,106.03
2018-12-06T03:42:49.643Z,95.67
2018-12-06T03:45:19.701Z,97.63
2018-12-06T03:47:49.697Z,102.97
2018-12-06T03:50:19.727Z,96.27
2018-12-06T03:52:49.737Z,96.47
2018-12-06T03:55:19.841Z,100.67
2018-12-06T03:57:49.860Z,83.33
2018-12-06T04:00:19.945Z,94.27
2018-12-06T04:02:49.895Z,97.17
2018-12-06T04:05:19.816Z,98.43
2018-12-06T04:07:49.817Z,89.43
2018-12-06T04:10:19.738Z,86.60
2018-12-06T04:12:49.751Z,98.77
2018-12-06T04:15:19.762Z,93.80
2018-12-06T04:17:49.726Z,83.73
2018-12-06T04:20:19.807Z,81.80
2018-12-06T04:22:49.813Z,83.00
2018-12-06T04:25:19.839Z,80.20
2018-12-06T04:27:49.841Z,76.83
2018-12-06T04:30:19.856Z,84.73
2018-12-06T04:32:49.872Z,79.77
2018-12-06T04:35:19.887Z,82.53
2018-12-06T04:37:49.992Z,71.83
2018-12-06T04:40:19.943Z,76.43
2018-12-06T04:42:49.848Z,72.43
2018-12-06T04:45:20.030Z,71.70
2018-12-06T04:47:50.271Z,70.50
2018-12-06T04:50:20.742Z,78.83
2018-12-06T04:52:50.707Z,76.07
2018-12-06T04:55:20.726Z,69.10
2018-12-06T04:57:50.693Z,64.13
2018-12-06T05:00:20.769Z,66.67
2018-12-06T05:02:50.779Z,78.63
2018-12-06T05:05:20.794Z,66.37
2018-12-06T05:07:50.902Z,70.73
2018-12-06T05:10:21.124Z,65.47
2018-12-06T05:12:51.137Z,62.90
2018-12-06T05:15:21.153Z,71.97
2018-12-06T05:17:51.070Z,73.13
2018-12-06T05:20:21.050Z,68.03
2018-12-06T05:22:51.109Z,65.33
2018-12-06T05:25:20.991Z,62.77
2018-12-06T05:27:50.938Z,71.87
2018-12-06T05:30:20.873Z,74.20
2018-12-06T05:32:50.882Z,72.80
2018-12-06T05:35:22.209Z,74.37
2018-12-06T05:37:52.190Z,66.20
2018-12-06T05:40:22.127Z,69.03
2018-12-06T05:42:52.258Z,78.57
2018-12-06T05:45:22.462Z,73.53
2018-12-06T05:47:52.435Z,77.40
2018-12-06T05:50:22.500Z,78.10
2018-12-06T05:52:52.628Z,76.97
2018-12-06T05:55:22.655Z,87.67
2018-12-06T05:57:52.742Z,82.63
2018-12-06T06:00:22.895Z,89.60
2018-12-06T06:02:53.132Z,80.33
2018-12-06T06:05:23.107Z,87.50
2018-12-06T06:07:53.557Z,92.23
2018-12-06T06:10:23.650Z,91.63
2018-12-06T06:12:53.887Z,93.47
2018-12-06T06:15:23.842Z,93.17
2018-12-06T06:17:53.699Z,93.13
2018-12-06T06:20:23.657Z,98.87
2018-12-06T06:22:53.496Z,114.90
2018-12-06T06:25:23.538Z,108.77
2018-12-06T06:27:53.508Z,112.17
2018-12-06T06:30:23.519Z,105.23
2018-12-06T06:32:53.576Z,127.57
2018-12-06T06:35:23.635Z,109.97
2018-12-06T06:37:53.550Z,120.53
2018-12-06T06:40:23.628Z,108.67
2018-12-06T06:42:53.747Z,110.20
2018-12-06T06:45:23.828Z,104.90
2018-12-06T06:47:53.883Z,100.13
2018-12-06T06:50:23.980Z,97.30
2018-12-06T06:52:54.110Z,103.77
2018-12-06T06:55:24.149Z,102.10
2018-12-06T06:57:54.220Z,97.63
2018-12-06T07:00:24.149Z,106.60
2018-12-06T07:02:54.059Z,97.80
2018-12-06T07:05:24.010Z,98.60
2018-12-06T07:07:53.911Z,96.87
2018-12-06T07:10:24.009Z,109.53
2018-12-06T07:12:54.222Z,108.67
2018-12-06T07:15:24.247Z,114.10
2018-12-06T07:17:54.227Z,117.23
2018-12-06T07:20:24.266Z,97.87
2018-12-06T07:22:54.239Z,105.83
2018-12-06T07:25:24.140Z,106.37
2018-12-06T07:27:54.221Z,99.53
2018-12-06T07:30:24.237Z,105.93
2018-12-06T07:32:54.248Z,110.37
2018-12-06T07:35:24.273Z,109.27
2018-12-06T07:37:54.380Z,111.33
2018-12-06T07:40:24.304Z,103.53
2018-12-06T07:42:54.261Z,117.37
2018-12-06T07:45:24.506Z,95.53
2018-12-06T07:47:54.721Z,115.03
2018-12-06T07:50:24.854Z,111.37
2018-12-06T07:52:54.787Z,110.97
2018-12-06T07:55:24.786Z,106.47
2018-12-06T07:57:54.666Z,105.87
2018-12-06T08:00:25.337Z,99.83
2018-12-06T08:02:55.446Z,104.67
2018-12-06T08:05:25.897Z,105.30
2018-12-06T08:07:55.886Z,96.43
2018-12-06T08:10:26.117Z,110.73
2018-12-06T08:12:56.337Z,102.87
2018-12-06T08:15:26.342Z,106.83
2018-12-06T08:17:56.396Z,110.80
2018-12-06T08:20:26.276Z,98.87
2018-12-06T08:22:56.291Z,102.40
2018-12-06T08:25:26.606Z,107.63
2018-12-06T08:27:56.596Z,100.27
2018-12-06T08:30:26.782Z,87.67
2018-12-06T08:32:56.801Z,104.93
2018-12-06T08:35:26.771Z,107.83
2018-12-06T08:37:56.632Z,101.43
2018-12-06T08:40:26.463Z,101.27
2018-12-06T08:42:56.316Z,103.17
2018-12-06T08:45:26.215Z,98.43
2018-12-06T08:47:56.232Z,80.33
2018-12-06T08:50:26.146Z,104.87
2018-12-06T08:52:56.045Z,101.50
2018-12-06T08:55:26.070Z,95.63
2018-12-06T08:57:56.190Z,93.97
2018-12-06T09:00:26.346Z,88.93
2018-12-06T09:02:56.421Z,86.70
2018-12-06T09:05:26.573Z,92.93
2018-12-06T09:08:03.424Z,90.77
2018-12-06T09:10:33.642Z,89.47
2018-12-06T09:13:03.761Z,92.97
2018-12-06T09:15:33.922Z,82.50
2018-12-06T09:18:03.983Z,95.92
2018-12-06T09:20:34.088Z,87.03
2018-12-06T09:23:04.201Z,85.13
2018-12-06T09:25:34.268Z,91.93
2018-12-06T09:28:04.457Z,82.30
2018-12-06T09:30:34.585Z,84.57
2018-12-06T09:33:04.655Z,84.70
2018-12-06T09:35:34.815Z,85.40
2018-12-06T09:38:04.935Z,94.57
2018-12-06T09:40:35.075Z,79.03
2018-12-06T09:43:05.170Z,76.73
2018-12-06T09:45:35.369Z,83.77
2018-12-06T09:48:05.500Z,99.62
2018-12-06T09:50:35.632Z,77.63
2018-12-06T09:53:05.845Z,94.97
2018-12-06T09:55:36.067Z,83.07
2018-12-06T09:58:06.297Z,80.33
2018-12-06T10:00:36.636Z,86.70
2018-12-06T10:03:06.700Z,77.33
2018-12-06T10:05:36.848Z,74.80
2018-12-06T10:08:06.960Z,77.93
2018-12-06T10:10:37.076Z,75.37
2018-12-06T10:13:07.134Z,84.73
2018-12-06T10:15:37.227Z,80.60
2018-12-06T10:18:07.431Z,71.40
2018-12-06T10:20:37.650Z,78.17
2018-12-06T10:23:07.770Z,80.97
2018-12-06T10:25:37.878Z,82.17
2018-12-06T10:28:08.020Z,71.40
2018-12-06T10:30:38.155Z,75.57
2018-12-06T10:33:08.443Z,68.37
2018-12-06T10:35:38.559Z,70.70
2018-12-06T10:38:08.687Z,70.23
2018-12-06T10:40:38.796Z,73.27
2018-12-06T10:43:08.839Z,79.43
2018-12-06T10:45:39.032Z,74.43
2018-12-06T10:48:09.147Z,78.83
2018-12-06T10:50:39.237Z,78.77
2018-12-06T10:53:09.284Z,79.53
2018-12-06T10:55:39.317Z,74.97
2018-12-06T10:58:09.354Z,71.77
2018-12-06T11:00:43.410Z,69.60
2018-12-06T11:03:17.430Z,66.73
2018-12-06T11:05:47.550Z,65.27
2018-12-06T11:08:17.587Z,68.53
2018-12-06T11:10:47.994Z,62.30
2018-12-06T11:13:18.110Z,64.40
2018-12-06T11:15:48.638Z,64.40
2018-12-06T11:18:18.764Z,61.50
2018-12-06T11:20:48.822Z,58.03
2018-12-06T11:23:18.932Z,57.60
2018-12-06T11:25:48.975Z,58.47
2018-12-06T11:28:19.130Z,63.80
2018-12-06T11:30:49.177Z,55.97
2018-12-06T11:33:19.439Z,54.60
2018-12-06T11:35:49.579Z,52.77
2018-12-06T11:38:19.693Z,49.87
2018-12-06T11:40:49.837Z,45.13
2018-12-06T11:43:19.935Z,54.93
2018-12-06T11:45:49.968Z,53.23
2018-12-06T11:48:26.686Z,49.53
2018-12-06T11:50:52.070Z,52.00
2018-12-06T11:53:22.325Z,49.53
2018-12-06T11:55:52.567Z,50.67
2018-12-06T11:58:22.681Z,54.33
2018-12-06T12:00:52.785Z,47.07
2018-12-06T12:03:22.914Z,50.03
2018-12-06T12:05:58.590Z,47.13
2018-12-06T12:08:24.969Z,49.13
2018-12-06T12:10:55.129Z,35.97
2018-12-06T12:13:25.187Z,41.27
2018-12-06T12:15:55.349Z,42.37
2018-12-06T12:18:25.455Z,34.83
2018-12-06T12:20:55.994Z,38.37
2018-12-06T12:23:26.113Z,40.23
2018-12-06T12:25:56.203Z,37.30
2018-12-06T12:28:26.307Z,34.80
2018-12-06T12:30:56.468Z,39.97
2018-12-06T12:33:26.582Z,36.30
2018-12-06T12:35:56.805Z,38.90
2018-12-06T12:38:26.922Z,44.53
2018-12-06T12:40:57.079Z,40.93
2018-12-06T12:43:27.129Z,36.80
2018-12-06T12:45:57.322Z,39.27
2018-12-06T12:48:27.374Z,36.53
2018-12-06T12:50:57.466Z,35.77
2018-12-06T12:53:27.524Z,40.47
2018-12-06T12:55:57.742Z,43.47
2018-12-06T12:58:27.769Z,41.33
2018-12-06T13:00:57.879Z,47.10
2018-12-06T13:03:27.992Z,43.90
2018-12-06T13:05:58.219Z,51.80
2018-12-06T13:08:28.337Z,55.08
2018-12-06T13:10:58.605Z,57.37
2018-12-06T13:13:28.643Z,67.77
2018-12-06T13:15:58.787Z,54.17
2018-12-06T13:18:28.923Z,63.77
2018-12-06T13:20:59.138Z,45.07
2018-12-06T13:23:29.315Z,36.53
2018-12-06T13:25:59.468Z,42.83
2018-12-06T13:28:29.791Z,40.23
2018-12-06T13:31:06.274Z,43.17
2018-12-06T13:33:36.470Z,43.17
2018-12-06T13:36:09.109Z,41.00
2018-12-06T13:38:39.263Z,42.03
2018-12-06T13:41:09.421Z,37.47
2018-12-06T13:43:39.811Z,41.53
2018-12-06T13:46:10.039Z,34.80
2018-12-06T13:48:40.249Z,44.17
2018-12-06T13:51:10.445Z,41.83
2018-12-06T13:53:40.693Z,40.00
2018-12-06T13:56:10.844Z,39.93
2018-12-06T13:58:41.072Z,37.80
2018-12-06T14:01:11.548Z,37.50
2018-12-06T14:03:42.082Z,39.53
2018-12-06T14:06:12.256Z,35.50
2018-12-06T14:08:42.520Z,38.80
2018-12-06T14:11:12.660Z,35.20
2018-12-06T14:13:43.237Z,33.13
2018-12-06T14:16:13.491Z,28.97
2018-12-06T14:18:43.718Z,30.27
2018-12-06T14:21:14.028Z,26.73
2018-12-06T14:23:46.200Z,24.80
2018-12-06T14:26:16.322Z,22.83
2018-12-06T14:28:46.423Z,30.73
2018-12-06T14:31:16.552Z,24.67
2018-12-06T14:33:46.672Z,27.10
2018-12-06T14:36:16.781Z,23.23
2018-12-06T14:38:47.006Z,30.03
2018-12-06T14:41:17.333Z,21.77
2018-12-06T14:43:47.755Z,23.00
2018-12-06T14:46:18.291Z,22.33
2018-12-06T14:48:48.470Z,27.20
2018-12-06T14:51:18.622Z,22.57
2018-12-06T14:53:48.677Z,21.03
2018-12-06T14:56:19.112Z,25.80
2018-12-06T14:58:49.280Z,24.80
2018-12-06T15:01:19.414Z,23.90
2018-12-06T15:03:49.753Z,22.00
2018-12-06T15:06:20.254Z,30.07
2018-12-06T15:08:50.366Z,25.03
2018-12-06T15:11:20.893Z,24.80
2018-12-06T15:13:51.025Z,23.83
2018-12-06T15:16:21.100Z,23.07
2018-12-06T15:18:51.043Z,23.40
2018-12-06T15:21:20.887Z,24.50
2018-12-06T15:23:50.770Z,26.37
2018-12-06T15:26:20.676Z,26.97
2018-12-06T15:28:50.597Z,26.80
2018-12-06T15:31:20.607Z,25.30
2018-12-06T15:33:50.515Z,25.93
2018-12-06T15:36:20.503Z,25.67
2018-12-06T15:38:50.335Z,27.03
2018-12-06T15:41:20.361Z,26.63
2018-12-06T15:43:50.271Z,25.87
2018-12-06T15:46:20.174Z,27.47
2018-12-06T15:48:50.001Z,31.80
2018-12-06T15:51:19.920Z,25.83
2018-12-06T15:53:49.845Z,30.17
2018-12-06T15:56:19.787Z,27.23
2018-12-06T15:58:49.647Z,29.37
2018-12-06T16:01:19.618Z,33.67
2018-12-06T16:03:49.680Z,32.87
2018-12-06T16:06:19.642Z,26.60
2018-12-06T16:08:49.708Z,32.47
2018-12-06T16:11:19.728Z,33.87
2018-12-06T16:13:49.646Z,28.13
2018-12-06T16:16:21.271Z,30.50
2018-12-06T16:18:51.201Z,36.90
2018-12-06T16:21:21.117Z,30.40
2018-12-06T16:23:50.925Z,31.80
2018-12-06T16:26:20.781Z,35.47
2018-12-06T16:28:50.690Z,36.40
2018-12-06T16:31:20.856Z,31.73
2018-12-06T16:33:50.720Z,37.83
2018-12-06T16:36:20.596Z,38.00
2018-12-06T16:38:50.505Z,43.97
2018-12-06T16:41:20.735Z,37.47
2018-12-06T16:43:50.845Z,40.20
2018-12-06T16:46:20.806Z,37.30
2018-12-06T16:48:51.287Z,35.93
2018-12-06T16:51:21.310Z,44.30
2018-12-06T16:53:51.527Z,43.67
2018-12-06T16:56:21.638Z,41.33
2018-12-06T16:58:51.873Z,38.30
2018-12-06T17:01:22.009Z,35.30
2018-12-06T17:03:52.298Z,37.97
2018-12-06T17:06:22.513Z,35.90
2018-12-06T17:08:52.325Z,41.37
2018-12-06T17:11:22.650Z,37.67
2018-12-06T17:13:52.767Z,39.23
2018-12-06T17:16:22.801Z,33.83
2018-12-06T17:18:53.924Z,40.10
2018-12-06T17:21:24.040Z,41.80
2018-12-06T17:23:53.973Z,34.23
2018-12-06T17:26:23.971Z,40.17
2018-12-06T17:28:53.994Z,38.07
2018-12-06T17:31:28.195Z,40.57
2018-12-06T17:33:58.275Z,40.03
2018-12-06T17:36:28.435Z,36.43
2018-12-06T17:38:58.411Z,41.90
2018-12-06T17:41:28.562Z,47.13
2018-12-06T17:43:58.685Z,53.67
2018-12-06T17:46:29.233Z,43.60
2018-12-06T17:48:59.358Z,44.80
2018-12-06T17:51:29.757Z,48.97
2018-12-06T17:53:59.814Z,45.87
2018-12-06T17:56:30.016Z,47.60
2018-12-06T17:59:00.240Z,49.93
2018-12-06T18:01:31.372Z,51.70
2018-12-06T18:04:02.347Z,45.93
2018-12-06T18:06:32.618Z,46.97
2018-12-06T18:09:04.619Z,55.87
2018-12-06T18:11:35.413Z,49.80
2018-12-06T18:14:06.483Z,48.97
2018-12-06T18:16:37.750Z,59.80
2018-12-06T18:19:07.807Z,61.73
2018-12-06T18:21:38.119Z,60.27
2018-12-06T18:24:08.280Z,78.23
2018-12-06T18:26:38.672Z,83.00
2018-12-06T18:29:09.871Z,83.00
2018-12-06T18:31:40.148Z,93.80
2018-12-06T18:34:10.617Z,84.00
2018-12-06T18:36:40.773Z,86.23
2018-12-06T18:39:10.898Z,84.20
2018-12-06T18:41:44.165Z,79.37
2018-12-06T18:44:14.103Z,73.30
2018-12-06T18:46:44.523Z,69.70
2018-12-06T18:49:15.100Z,66.70
2018-12-06T18:51:45.957Z,69.20
2018-12-06T18:54:15.785Z,71.07
2018-12-06T18:56:45.717Z,69.93
2018-12-06T18:59:15.572Z,66.47
2018-12-06T19:01:45.737Z,63.53
2018-12-06T19:04:18.835Z,68.87
2018-12-06T19:06:50.048Z,67.27
2018-12-06T19:09:20.109Z,75.87
2018-12-06T19:11:50.186Z,69.13
2018-12-06T19:14:22.045Z,69.43
2018-12-06T19:16:55.013Z,84.37
2018-12-06T19:19:25.322Z,89.70
2018-12-06T19:21:55.330Z,88.50
2018-12-06T19:24:25.414Z,91.00
2018-12-06T19:26:55.435Z,93.63
2018-12-06T19:29:25.549Z,93.63
2018-12-06T19:31:58.877Z,81.10
2018-12-06T19:34:28.922Z,84.87
2018-12-06T19:36:59.987Z,89.00
2018-12-06T19:39:32.269Z,80.13
2018-12-06T19:42:02.660Z,76.87
2018-12-06T19:44:33.427Z,75.93
2018-12-06T19:47:03.782Z,79.53
2018-12-06T19:49:33.857Z,87.43
2018-12-06T19:52:04.913Z,87.13
2018-12-06T19:54:38.007Z,97.73
2018-12-06T19:57:08.513Z,106.20
2018-12-06T19:59:38.848Z,101.20
2018-12-06T20:02:08.787Z,99.43
2018-12-06T20:04:39.292Z,81.03
2018-12-06T20:07:09.388Z,92.80
2018-12-06T20:09:41.002Z,94.97
2018-12-06T20:12:12.249Z,103.27
2018-12-06T20:14:43.592Z,101.13
2018-12-06T20:17:14.610Z,96.33
2018-12-06T20:19:46.262Z,111.53
2018-12-06T20:22:16.358Z,106.20
2018-12-06T20:24:46.860Z,95.53
2018-12-06T20:27:17.836Z,104.30
2018-12-06T20:29:47.943Z,95.10
2018-12-06T20:32:18.053Z,99.33
2018-12-06T20:34:48.181Z,107.47
2018-12-06T20:37:18.951Z,113.23
2018-12-06T20:39:49.321Z,102.93
2018-12-06T20:42:19.448Z,106.80
2018-12-06T20:44:49.372Z,118.87
2018-12-06T20:47:21.219Z,106.77
2018-12-06T20:49:51.255Z,124.33
2018-12-06T20:52:21.338Z,116.37
2018-12-06T20:54:51.361Z,118.93
2018-12-06T20:57:21.788Z,127.97
2018-12-06T20:59:51.745Z,124.30
2018-12-06T21:02:21.810Z,125.77
2018-12-06T21:04:52.477Z,128.90
2018-12-06T21:07:22.476Z,128.20
2018-12-06T21:09:52.683Z,122.87
2018-12-06T21:12:22.716Z,139.20
2018-12-06T21:14:52.780Z,140.90
2018-12-06T21:17:22.662Z,142.67
2018-12-06T21:19:52.702Z,147.60
2018-12-06T21:22:22.603Z,138.77
2018-12-06T21:24:53.647Z,147.37
2018-12-06T21:27:23.608Z,141.53
2018-12-06T21:29:53.628Z,153.20
2018-12-06T21:32:23.547Z,159.17
2018-12-06T21:34:53.501Z,161.20
2018-12-06T21:37:23.432Z,165.43
2018-12-06T21:39:53.563Z,165.13
2018-12-06T21:42:24.581Z,177.33
2018-12-06T21:44:54.525Z,195.37
2018-12-06T21:47:27.792Z,205.30
2018-12-06T21:49:57.672Z,219.50
2018-12-06T21:52:27.595Z,222.40
2018-12-06T21:54:57.867Z,234.00
2018-12-06T21:57:27.698Z,217.87
2018-12-06T21:59:57.878Z,201.57
2018-12-06T22:02:28.930Z,212.97
2018-12-06T22:04:59.439Z,213.00
2018-12-06T22:07:29.901Z,200.53
2018-12-06T22:10:00.229Z,206.00
2018-12-06T22:12:30.575Z,196.97
2018-12-06T22:15:00.630Z,210.57
2018-12-06T22:17:30.573Z,214.97
2018-12-06T22:20:00.581Z,225.77
2018-12-06T22:22:30.493Z,208.33
2018-12-06T22:25:00.581Z,214.27
2018-12-06T22:27:30.536Z,212.37
2018-12-06T22:30:00.472Z,204.57
2018-12-06T22:32:30.621Z,199.73
2018-12-06T22:35:00.583Z,199.40
2018-12-06T22:37:30.687Z,189.83
2018-12-06T22:40:00.709Z,197.13
2018-12-06T22:42:30.830Z,177.37
2018-12-06T22:47:55.222Z,176.17
2018-12-06T22:50:25.124Z,164.60
2018-12-06T22:52:55.109Z,159.67
2018-12-06T22:55:24.988Z,146.73
2018-12-06T22:57:54.989Z,145.83
2018-12-06T23:00:26.949Z,136.87
2018-12-06T23:02:56.848Z,122.70
2018-12-06T23:05:26.779Z,119.23
2018-12-06T23:07:56.726Z,121.57
2018-12-06T23:10:26.693Z,115.63
2018-12-06T23:12:56.719Z,124.80
2018-12-06T23:15:26.629Z,124.00
2018-12-06T23:17:56.573Z,117.27
2018-12-06T23:20:26.609Z,127.67
2018-12-06T23:22:56.772Z,105.87
2018-12-06T23:25:26.653Z,116.73
2018-12-06T23:27:56.738Z,116.13
2018-12-06T23:30:26.608Z,110.90
2018-12-06T23:32:56.522Z,117.50
2018-12-06T23:35:26.400Z,111.67
2018-12-06T23:37:56.458Z,124.07
2018-12-06T23:40:26.448Z,134.50
2018-12-06T23:42:56.362Z,119.27
2018-12-06T23:45:26.399Z,107.13
2018-12-06T23:47:56.352Z,99.57
2018-12-06T23:50:26.331Z,97.27
2018-12-06T23:52:56.331Z,102.53
2018-12-06T23:55:26.203Z,98.77
2018-12-06T23:57:56.378Z,95.53
